Time;durP1;ratioP1;P1;durP2;ratioP2;P2;SDS_P1;SDS_P2;PMS_P1;PMS_P2;Temp;Humidity;BMP_temperature;BMP_pressure;BME280_temperature;BME280_humidity;BME280_pressure;Samples;Min_cycle;Max_cycle;Signal;HPM_P1;HPM_P2
2023/01/28 00:02:20;;;;;;;7.20;4.38;;;;;;;0.97;64.88;94316.22;5064874;28;20494;-76
2023/01/28 00:04:45;;;;;;;5.00;4.10;;;;;;;0.93;64.77;94308.13;5065990;28;20433;-77
2023/01/28 00:07:10;;;;;;;4.90;4.03;;;;;;;0.90;64.95;94311.59;5066002;28;20039;-75
2023/01/28 00:09:36;;;;;;;7.30;4.45;;;;;;;0.96;64.86;94314.69;5063184;28;20204;-76
2023/01/28 00:12:01;;;;;;;6.13;4.40;;;;;;;0.93;65.01;94318.19;5065285;28;20032;-75
2023/01/28 00:14:27;;;;;;;7.20;4.43;;;;;;;0.99;65.07;94324.75;5064918;28;20016;-76
2023/01/28 00:16:52;;;;;;;5.10;4.10;;;;;;;1.02;64.58;94327.44;5064241;28;20461;-76
2023/01/28 00:19:17;;;;;;;5.07;3.90;;;;;;;1.00;64.73;94329.00;5064993;28;20020;-75
2023/01/28 00:21:43;;;;;;;5.43;3.88;;;;;;;0.99;64.55;94336.34;5064413;28;20032;-77
2023/01/28 00:24:08;;;;;;;6.97;4.78;;;;;;;0.95;64.97;94330.16;5063789;28;20493;-76
2023/01/28 00:26:34;;;;;;;6.55;4.25;;;;;;;0.93;64.78;94329.78;5063007;28;20024;-76
2023/01/28 00:28:59;;;;;;;6.15;4.25;;;;;;;1.02;64.68;94338.25;5065290;28;20029;-75
2023/01/28 00:31:26;;;;;;;6.32;4.28;;;;;;;1.09;64.46;94332.09;5062829;28;20138;-76
2023/01/28 00:33:53;;;;;;;5.70;4.38;;;;;;;1.11;64.34;94335.16;5064104;28;20028;-75
2023/01/28 00:36:20;;;;;;;6.00;4.40;;;;;;;1.14;64.19;94345.19;5064584;28;20113;-76
2023/01/28 00:38:50;;;;;;;6.57;4.70;;;;;;;1.13;64.28;94337.47;5063856;28;20564;-75
2023/01/28 00:41:16;;;;;;;8.88;5.78;;;;;;;1.11;64.41;94348.69;5065154;28;20351;-76
2023/01/28 00:43:43;;;;;;;11.27;6.10;;;;;;;1.11;64.66;94340.56;5063653;28;20121;-77
2023/01/28 00:46:10;;;;;;;7.80;5.70;;;;;;;1.11;64.55;94343.28;5065367;28;20028;-76
2023/01/28 00:48:37;;;;;;;5.63;4.82;;;;;;;1.07;64.46;94350.63;5064162;28;20033;-76
2023/01/28 00:51:03;;;;;;;9.07;6.05;;;;;;;1.03;64.74;94347.94;5064322;28;20032;-77
2023/01/28 00:53:28;;;;;;;10.52;6.03;;;;;;;1.08;64.77;94354.88;5063114;28;20025;-75
2023/01/28 00:55:54;;;;;;;7.22;5.30;;;;;;;1.13;64.80;94342.88;5064083;28;21008;-75
2023/01/28 00:58:20;;;;;;;12.57;6.60;;;;;;;1.17;64.30;94349.84;5064595;28;20014;-78
2023/01/28 01:00:46;;;;;;;7.82;5.78;;;;;;;1.21;64.08;94353.31;5064980;28;20104;-75
2023/01/28 01:03:12;;;;;;;7.28;5.18;;;;;;;1.15;64.13;94348.66;5065416;28;20040;-76
2023/01/28 01:05:37;;;;;;;7.00;4.57;;;;;;;1.22;64.00;94345.97;5062294;28;20427;-76
2023/01/28 01:08:03;;;;;;;8.13;5.07;;;;;;;1.22;64.10;94351.38;5062937;28;20035;-75
2023/01/28 01:10:28;;;;;;;7.43;5.60;;;;;;;1.20;63.82;94351.75;5064247;28;20024;-75
2023/01/28 01:12:58;;;;;;;6.97;5.38;;;;;;;1.17;64.07;94340.94;5064040;28;20052;-76
2023/01/28 01:15:23;;;;;;;6.75;5.00;;;;;;;1.16;64.14;94351.00;5062653;28;20402;-76
2023/01/28 01:17:49;;;;;;;7.40;4.72;;;;;;;1.17;64.18;94344.44;5067021;28;20561;-75
2023/01/28 01:20:25;;;;;;;7.28;5.65;;;;;;;1.11;64.31;94356.03;5067434;28;20537;-76
2023/01/28 01:22:51;;;;;;;7.63;5.07;;;;;;;1.09;64.48;94352.94;5067270;28;20028;-75
2023/01/28 01:25:17;;;;;;;6.07;5.47;;;;;;;1.06;64.62;94354.50;5068485;28;20032;-76
2023/01/28 01:27:44;;;;;;;7.13;5.38;;;;;;;1.13;64.33;94351.00;5068113;28;20107;-76
2023/01/28 01:30:11;;;;;;;6.90;5.22;;;;;;;1.14;64.22;94355.25;5066265;28;20043;-76
2023/01/28 01:32:36;;;;;;;6.90;5.07;;;;;;;1.11;64.21;94361.47;5067943;28;20406;-77
2023/01/28 01:35:07;;;;;;;7.05;5.30;;;;;;;1.04;64.53;94357.59;5067519;28;20013;-76
2023/01/28 01:37:33;;;;;;;6.40;5.47;;;;;;;0.97;65.00;94360.31;5068336;28;20063;-76
2023/01/28 01:40:00;;;;;;;6.18;5.07;;;;;;;1.01;64.79;94352.97;5066695;28;20119;-76
2023/01/28 01:42:26;;;;;;;8.40;5.50;;;;;;;1.08;64.29;94368.41;5067207;28;20028;-75
2023/01/28 01:45:04;;;;;;;7.63;5.47;;;;;;;1.05;64.51;94359.16;5069266;28;20426;-77
2023/01/28 01:47:58;;;;;;;6.90;5.28;;;;;;;1.04;64.65;94357.59;5070233;28;20028;-75
2023/01/28 01:50:36;;;;;;;6.53;5.15;;;;;;;1.09;64.35;94355.66;5068126;28;20044;-76
2023/01/28 01:53:09;;;;;;;6.30;4.88;;;;;;;1.01;64.61;94354.91;5065656;28;20063;-76
2023/01/28 01:55:36;;;;;;;6.72;4.85;;;;;;;1.01;64.70;94357.59;5069903;28;20029;-75
2023/01/28 01:58:05;;;;;;;6.85;4.85;;;;;;;1.01;64.52;94358.38;5067338;28;20549;-77
2023/01/28 02:00:31;;;;;;;6.60;5.13;;;;;;;0.96;64.25;94358.75;5067353;28;20035;-78
2023/01/28 02:02:57;;;;;;;7.15;4.90;;;;;;;0.99;64.53;94359.94;5067581;28;20107;-78
2023/01/28 02:05:23;;;;;;;5.97;4.57;;;;;;;0.93;64.29;94358.78;5065996;28;20032;-76
2023/01/28 02:07:53;;;;;;;7.90;5.63;;;;;;;0.86;64.69;94361.47;5067974;28;20032;-76
2023/01/28 02:10:20;;;;;;;6.65;4.72;;;;;;;0.85;64.90;94373.47;5066639;28;20028;-76
2023/01/28 02:12:52;;;;;;;9.30;6.15;;;;;;;0.87;64.90;94371.16;5067561;28;20047;-76
2023/01/28 02:15:20;;;;;;;11.48;5.43;;;;;;;0.88;64.57;94373.47;5065612;28;20056;-75
2023/01/28 02:17:46;;;;;;;8.20;5.18;;;;;;;0.84;64.89;94380.81;5065419;28;20048;-76
2023/01/28 02:20:13;;;;;;;7.90;5.07;;;;;;;0.87;64.91;94373.88;5067127;28;20090;-76
2023/01/28 02:23:11;;;;;;;9.85;6.13;;;;;;;0.95;64.71;94372.69;5065294;28;20035;-76
2023/01/28 02:26:06;;;;;;;7.65;4.97;;;;;;;0.91;64.81;94378.09;5066234;28;20017;-77
2023/01/28 02:28:34;;;;;;;6.88;4.85;;;;;;;0.81;64.71;94373.50;5065341;28;20499;-77
2023/01/28 02:31:06;;;;;;;7.88;5.10;;;;;;;0.74;64.96;94376.94;5066285;28;20082;-76
2023/01/28 02:33:37;;;;;;;6.28;4.70;;;;;;;0.75;64.78;94378.53;5067339;28;20029;-76
2023/01/28 02:36:16;;;;;;;6.78;4.78;;;;;;;0.72;65.01;94376.56;5047845;28;20036;-76
2023/01/28 02:38:45;;;;;;;6.15;4.80;;;;;;;0.72;64.81;94371.16;5065535;28;20055;-76
2023/01/28 02:41:17;;;;;;;5.82;4.90;;;;;;;0.79;64.94;94373.84;5064883;28;20526;-75
2023/01/28 02:43:45;;;;;;;7.22;4.93;;;;;;;0.82;64.73;94377.75;5065195;28;20055;-76
2023/01/28 02:49:36;;;;;;;6.00;4.28;;;;;;;0.87;64.50;94376.56;5067035;28;20066;-76
2023/01/28 02:55:39;;;;;;;6.50;4.68;;;;;;;0.92;63.96;94381.56;5064795;28;20526;-76
2023/01/28 02:58:10;;;;;;;7.03;4.85;;;;;;;0.95;64.08;94370.75;5063323;28;20025;-77
2023/01/28 03:00:55;;;;;;;6.22;4.40;;;;;;;0.75;64.25;94378.53;5063848;28;20149;-75
2023/01/28 03:03:28;;;;;;;7.07;4.15;;;;;;;0.78;64.49;94383.13;5047075;28;20084;-77
2023/01/28 03:06:06;;;;;;;6.20;4.63;;;;;;;0.74;64.28;94382.34;5046205;28;20071;-77
2023/01/28 03:39:05;;;;;;;;;;;;;;;0.40;65.87;94392.00;5064745;28;20071;-75
2023/01/28 03:41:31;;;;;;;7.22;5.22;;;;;;;0.41;65.97;94396.28;5063708;28;19912;-75
2023/01/28 03:43:57;;;;;;;7.32;5.05;;;;;;;0.30;65.90;94390.84;5065578;28;20025;-75
2023/01/28 03:46:22;;;;;;;8.15;5.22;;;;;;;0.25;66.01;94383.88;5067626;28;20029;-75
2023/01/28 03:48:48;;;;;;;5.65;4.40;;;;;;;0.22;65.86;94397.38;5065353;28;20085;-77
2023/01/28 03:51:15;;;;;;;8.32;5.45;;;;;;;0.24;66.09;94393.16;5065673;28;20426;-76
2023/01/28 03:53:40;;;;;;;6.47;4.60;;;;;;;0.32;65.74;94393.16;5064810;28;20032;-77
2023/01/28 03:56:06;;;;;;;5.88;4.38;;;;;;;0.30;65.46;94398.97;5065408;28;20028;-75
2023/01/28 04:01:32;;;;;;;7.22;5.15;;;;;;;0.43;65.50;94408.25;5062173;28;20501;-75
2023/01/28 04:03:58;;;;;;;6.47;4.75;;;;;;;0.49;65.01;94414.03;5062290;28;20059;-76
2023/01/28 04:06:23;;;;;;;6.57;5.05;;;;;;;0.52;64.82;94408.66;5062163;28;20032;-76
2023/01/28 04:08:52;;;;;;;6.60;4.28;;;;;;;0.50;64.88;94410.94;5062932;28;20037;-76
2023/01/28 04:11:20;;;;;;;6.07;4.82;;;;;;;0.53;64.87;94412.13;5061574;28;20029;-75
2023/01/28 04:13:47;;;;;;;6.88;4.63;;;;;;;0.54;64.70;94410.97;5063309;28;20073;-75
2023/01/28 04:16:15;;;;;;;6.10;4.90;;;;;;;0.51;65.00;94423.31;5065016;28;20070;-77
2023/01/28 04:18:40;;;;;;;6.80;4.70;;;;;;;0.48;64.99;94420.63;5045837;28;20126;-76
2023/01/28 04:21:06;;;;;;;8.13;4.85;;;;;;;0.38;65.18;94416.72;5045782;28;20052;-76
2023/01/28 04:23:32;;;;;;;6.38;5.20;;;;;;;0.44;65.18;94425.25;5061997;28;20048;-75
2023/01/28 04:25:57;;;;;;;5.88;4.20;;;;;;;0.48;65.09;94421.38;5062691;28;20043;-75
2023/01/28 04:28:23;;;;;;;6.40;4.70;;;;;;;0.46;65.30;94428.31;5044899;28;20510;-75
2023/01/28 04:30:48;;;;;;;8.75;4.22;;;;;;;0.34;65.73;94421.34;5062938;28;20423;-75
2023/01/28 04:33:14;;;;;;;6.53;4.82;;;;;;;0.30;66.06;94431.41;5061722;28;20101;-76
2023/01/28 04:35:40;;;;;;;6.60;4.97;;;;;;;0.29;66.38;94427.16;5063736;28;20040;-75
2023/01/28 04:38:05;;;;;;;7.03;5.13;;;;;;;0.23;66.36;94434.06;5064505;28;20035;-76
2023/01/28 04:40:31;;;;;;;5.43;4.63;;;;;;;0.22;66.70;94437.94;5063366;28;20511;-77
2023/01/28 04:42:56;;;;;;;8.15;5.15;;;;;;;0.15;66.98;94436.00;5067249;28;20640;-76
2023/01/28 04:45:22;;;;;;;8.07;4.97;;;;;;;0.21;66.86;94445.28;5064379;28;20032;-76
2023/01/28 04:47:47;;;;;;;7.70;5.28;;;;;;;0.18;66.96;94450.69;5065361;28;20107;-76
2023/01/28 04:50:13;;;;;;;6.88;4.68;;;;;;;0.26;66.93;94449.53;5062141;28;20033;-76
2023/01/28 04:52:39;;;;;;;7.18;5.47;;;;;;;0.24;66.83;94447.22;5063245;28;20151;-75
2023/01/28 04:55:05;;;;;;;6.50;4.93;;;;;;;0.16;66.96;94447.56;5064167;28;20029;-76
2023/01/28 04:57:30;;;;;;;7.78;5.25;;;;;;;0.18;66.76;94456.88;5064679;28;20021;-76
2023/01/28 04:59:56;;;;;;;7.55;5.55;;;;;;;0.20;66.86;94454.56;5064366;28;20063;-77
2023/01/28 05:02:21;;;;;;;10.55;4.90;;;;;;;0.22;66.82;94452.22;5064207;28;20490;-76
2023/01/28 05:04:46;;;;;;;8.93;5.55;;;;;;;0.23;66.60;94459.22;5046526;28;20032;-76
2023/01/28 05:07:12;;;;;;;9.18;6.25;;;;;;;0.30;66.52;94455.75;5062214;28;20039;-76
2023/01/28 05:09:37;;;;;;;8.50;4.90;;;;;;;0.26;66.19;94465.75;5063566;28;20028;-75
2023/01/28 05:12:03;;;;;;;7.57;5.18;;;;;;;0.25;66.28;94456.88;5062371;28;20347;-76
2023/01/28 05:14:28;;;;;;;9.80;5.55;;;;;;;0.30;66.32;94471.19;5063103;28;20027;-76
2023/01/28 05:16:54;;;;;;;8.07;5.45;;;;;;;0.33;66.47;94467.72;5063862;28;20118;-77
2023/01/28 05:19:19;;;;;;;7.40;5.43;;;;;;;0.30;66.12;94471.97;5063832;28;20506;-76
2023/01/28 05:21:45;;;;;;;7.68;5.50;;;;;;;0.19;66.31;94473.84;5064504;28;20024;-76
2023/01/28 05:24:11;;;;;;;7.60;5.30;;;;;;;0.13;66.54;94473.44;5061989;28;20039;-77
2023/01/28 05:26:36;;;;;;;7.13;4.53;;;;;;;0.14;66.71;94479.63;5063261;28;20036;-76
2023/01/28 05:29:02;;;;;;;6.28;4.80;;;;;;;0.17;66.46;94482.34;5063339;28;20452;-76
2023/01/28 05:31:27;;;;;;;7.82;5.15;;;;;;;0.17;66.21;94485.06;5064622;28;20017;-77
2023/01/28 05:33:53;;;;;;;8.05;5.78;;;;;;;0.17;66.40;94478.84;5063480;28;20082;-75
2023/01/28 05:36:18;;;;;;;7.22;5.32;;;;;;;0.18;66.28;94485.84;5064443;28;20031;-76
2023/01/28 05:38:44;;;;;;;7.45;5.68;;;;;;;0.15;66.50;94487.34;5064766;28;20585;-76
2023/01/28 05:41:09;;;;;;;6.25;4.90;;;;;;;0.18;66.10;94494.72;5063894;28;20520;-76
2023/01/28 05:43:35;;;;;;;7.40;5.25;;;;;;;0.23;66.00;94496.25;5063054;28;20028;-77
2023/01/28 05:46:00;;;;;;;7.68;5.70;;;;;;;0.21;65.97;94493.94;5062881;28;20095;-77
2023/01/28 05:48:26;;;;;;;7.38;4.70;;;;;;;0.14;65.95;94491.22;5064640;28;20059;-76
2023/01/28 05:50:51;;;;;;;5.72;5.00;;;;;;;0.16;65.95;94485.41;5063444;28;20529;-75
2023/01/28 05:53:16;;;;;;;8.13;5.97;;;;;;;0.13;65.75;94484.25;5064126;28;20491;-76
2023/01/28 05:55:42;;;;;;;6.50;5.18;;;;;;;0.16;65.95;94490.81;5063569;28;20048;-76
2023/01/28 05:58:07;;;;;;;7.68;4.95;;;;;;;0.08;65.76;94495.44;5063329;28;20387;-77
2023/01/28 06:00:33;;;;;;;7.53;5.18;;;;;;;0.06;65.88;94500.47;5064113;28;20044;-76
2023/01/28 06:02:58;;;;;;;7.38;5.38;;;;;;;0.13;65.41;94507.81;5065138;28;20021;-76
2023/01/28 06:05:23;;;;;;;7.90;5.35;;;;;;;0.17;65.76;94503.19;5067776;28;20036;-76
2023/01/28 06:07:49;;;;;;;7.15;4.88;;;;;;;0.14;65.76;94512.06;5065374;28;20090;-76
2023/01/28 06:10:16;;;;;;;7.65;5.53;;;;;;;0.12;65.70;94509.75;5067332;28;20028;-77
2023/01/28 06:12:42;;;;;;;7.85;5.28;;;;;;;0.10;66.02;94525.56;5066727;28;20060;-77
2023/01/28 06:15:08;;;;;;;8.65;5.63;;;;;;;0.05;65.94;94525.16;5067000;28;20064;-76
2023/01/28 06:17:34;;;;;;;7.55;6.00;;;;;;;0.04;65.97;94529.78;5066889;28;20473;-77
2023/01/28 06:19:59;;;;;;;8.45;5.80;;;;;;;0.08;66.04;94540.63;5065221;28;20029;-76
2023/01/28 06:22:24;;;;;;;8.68;5.90;;;;;;;0.14;65.74;94542.56;5067454;28;20487;-76
2023/01/28 06:24:50;;;;;;;11.63;6.57;;;;;;;0.17;65.66;94538.31;5066098;28;20032;-76
2023/01/28 06:27:15;;;;;;;7.97;5.20;;;;;;;0.20;65.48;94543.00;5067043;28;20078;-76
2023/01/28 06:29:41;;;;;;;9.50;6.35;;;;;;;0.23;65.55;94536.81;5066432;28;20843;-76
2023/01/28 06:32:06;;;;;;;10.90;6.93;;;;;;;0.29;65.44;94534.50;5067135;28;20111;-78
2023/01/28 06:34:32;;;;;;;7.88;6.05;;;;;;;0.32;65.45;94548.06;5070109;28;20477;-76
2023/01/28 06:36:57;;;;;;;10.40;6.35;;;;;;;0.35;65.09;94549.25;5067160;28;20033;-77
2023/01/28 06:39:23;;;;;;;8.10;6.10;;;;;;;0.31;65.38;94560.03;5066782;28;20032;-77
2023/01/28 06:41:49;;;;;;;8.23;5.63;;;;;;;0.41;65.15;94563.94;5065480;28;20043;-76
2023/01/28 06:44:15;;;;;;;9.23;5.65;;;;;;;0.49;64.63;94558.16;5069103;28;20035;-76
2023/01/28 06:46:40;;;;;;;7.97;5.65;;;;;;;0.52;64.54;94575.59;5069101;28;20056;-77
2023/01/28 06:49:06;;;;;;;9.00;6.07;;;;;;;0.51;64.47;94568.59;5066071;28;20442;-76
2023/01/28 06:51:31;;;;;;;8.02;5.45;;;;;;;0.48;64.63;94572.84;5048353;28;20130;-76
2023/01/28 06:53:57;;;;;;;8.75;6.70;;;;;;;0.50;64.48;94586.00;5067087;28;20075;-75
2023/01/28 06:56:22;;;;;;;10.32;6.63;;;;;;;0.55;64.73;94576.72;5066117;28;20067;-76
2023/01/28 06:58:47;;;;;;;8.40;6.35;;;;;;;0.59;64.61;94583.72;5066644;28;20048;-76
2023/01/28 07:01:13;;;;;;;8.35;6.03;;;;;;;0.65;64.52;94582.19;5066626;28;20035;-75
2023/01/28 07:03:38;;;;;;;7.97;6.05;;;;;;;0.64;64.29;94582.56;5047414;28;20024;-76
2023/01/28 07:06:04;;;;;;;8.55;6.55;;;;;;;0.63;64.46;94592.63;5065280;28;20029;-76
2023/01/28 07:08:30;;;;;;;9.98;6.78;;;;;;;0.62;64.33;94593.75;5065859;28;20495;-75
2023/01/28 07:10:59;;;;;;;9.05;6.57;;;;;;;0.58;64.23;94590.28;5066478;28;20397;-75
2023/01/28 07:13:24;;;;;;;9.73;7.22;;;;;;;0.59;64.67;94602.66;5065176;28;20039;-75
2023/01/28 07:15:50;;;;;;;9.25;6.03;;;;;;;0.60;64.66;94604.19;5064168;28;20359;-76
2023/01/28 07:18:15;;;;;;;10.20;7.15;;;;;;;0.66;64.43;94602.66;5065869;28;20037;-76
2023/01/28 07:20:41;;;;;;;11.77;7.43;;;;;;;0.77;64.33;94608.91;5065772;28;20025;-75
2023/01/28 07:23:06;;;;;;;14.55;8.98;;;;;;;0.77;64.38;94608.91;5066248;28;20054;-75
2023/01/28 07:25:32;;;;;;;9.70;6.43;;;;;;;0.64;64.09;94613.09;5065750;28;20046;-76
2023/01/28 07:27:57;;;;;;;10.13;7.18;;;;;;;0.61;64.33;94613.84;5065168;28;20481;-76
2023/01/28 07:30:23;;;;;;;11.55;7.97;;;;;;;0.66;64.36;94620.84;5068543;28;20035;-76
2023/01/28 07:32:55;;;;;;;11.77;8.13;;;;;;;0.71;64.17;94623.94;5066075;28;20028;-76
2023/01/28 07:35:21;;;;;;;11.48;8.90;;;;;;;0.81;64.05;94630.56;5065705;28;20117;-76
2023/01/28 07:37:51;;;;;;;15.13;8.52;;;;;;;0.90;63.79;94622.06;5064085;28;20082;-77
2023/01/28 07:40:17;;;;;;;11.85;7.97;;;;;;;0.99;63.53;94625.97;5065781;28;20519;-76
2023/01/28 07:42:42;;;;;;;10.43;7.13;;;;;;;1.10;63.19;94627.94;5065116;28;20191;-75
2023/01/28 07:45:08;;;;;;;9.38;6.93;;;;;;;1.17;62.60;94636.06;5065699;28;20097;-74
2023/01/28 07:47:33;;;;;;;8.82;6.40;;;;;;;1.22;62.30;94641.88;5065105;28;20033;-75
2023/01/28 07:49:59;;;;;;;10.48;7.25;;;;;;;1.19;62.38;94634.53;5064012;28;20515;-75
2023/01/28 07:52:24;;;;;;;8.27;6.75;;;;;;;1.13;62.26;94630.66;5064958;28;20050;-75
2023/01/28 07:54:49;;;;;;;11.00;7.00;;;;;;;1.13;62.43;94644.19;5063404;28;20024;-78
2023/01/28 07:57:22;;;;;;;8.23;6.13;;;;;;;1.06;62.52;94634.09;5063913;28;20407;-74
2023/01/28 07:59:50;;;;;;;10.85;6.68;;;;;;;1.10;62.66;94642.25;5059591;28;20025;-77
2023/01/28 08:02:16;;;;;;;8.95;6.68;;;;;;;1.04;62.38;94635.66;5064213;28;20037;-77
2023/01/28 08:04:42;;;;;;;9.40;6.72;;;;;;;1.03;62.63;94645.72;5060334;28;20111;-77
2023/01/28 08:07:07;;;;;;;10.23;7.20;;;;;;;1.08;62.81;94652.66;5063728;28;20525;-78
2023/01/28 08:09:33;;;;;;;9.07;6.57;;;;;;;1.17;62.70;94657.75;5062249;28;20037;-75
2023/01/28 08:12:00;;;;;;;10.52;7.65;;;;;;;1.26;62.51;94650.00;5063323;28;20043;-76
2023/01/28 08:14:26;;;;;;;10.57;6.82;;;;;;;1.27;62.21;94657.00;5062304;28;20023;-75
2023/01/28 08:16:51;;;;;;;9.18;7.00;;;;;;;1.28;62.28;94653.91;5063078;28;20064;-75
2023/01/28 08:19:17;;;;;;;8.95;6.38;;;;;;;1.21;62.37;94663.94;5063814;28;20024;-77
2023/01/28 08:21:43;;;;;;;7.43;6.03;;;;;;;1.18;62.37;94665.47;5063254;28;20024;-83
2023/01/28 08:24:08;;;;;;;9.55;7.03;;;;;;;1.18;62.54;94660.06;5071591;28;20020;-81
2023/01/28 08:26:34;;;;;;;8.77;6.30;;;;;;;1.18;62.07;94662.00;5070025;28;20090;-83
2023/01/28 08:28:59;;;;;;;9.48;6.07;;;;;;;1.10;61.87;94663.91;5064943;28;20029;-84
2023/01/28 08:31:24;;;;;;;7.75;5.93;;;;;;;1.17;61.98;94666.63;5064387;28;20119;-84
2023/01/28 08:33:51;;;;;;;8.77;5.90;;;;;;;1.12;62.01;94669.72;5065067;28;20465;-83
2023/01/28 08:36:16;;;;;;;9.50;7.43;;;;;;;1.18;62.19;94659.28;5066371;28;20020;-81
2023/01/28 08:38:42;;;;;;;7.95;5.95;;;;;;;1.23;62.10;94658.91;5065200;28;20050;-80
2023/01/28 08:41:07;;;;;;;9.38;6.18;;;;;;;1.28;62.18;94666.66;5067952;28;20029;-80
2023/01/28 08:43:33;;;;;;;8.80;6.60;;;;;;;1.30;61.85;94670.53;5068947;28;20032;-81
2023/01/28 08:45:58;;;;;;;10.30;6.88;;;;;;;1.30;62.20;94667.81;5066570;28;20067;-85
2023/01/28 08:48:24;;;;;;;8.80;6.18;;;;;;;1.36;62.14;94665.50;5073182;28;20059;-83
2023/01/28 08:50:49;;;;;;;7.18;5.32;;;;;;;1.42;62.05;94663.97;5046730;28;20028;-82
2023/01/28 08:53:17;;;;;;;9.27;6.65;;;;;;;1.49;61.23;94677.56;5064507;28;20086;-82
2023/01/28 08:55:42;;;;;;;10.07;6.82;;;;;;;1.60;60.99;94670.19;5065686;28;20024;-79
2023/01/28 08:58:13;;;;;;;9.50;6.82;;;;;;;1.74;60.50;94672.16;5046823;28;20059;-83
2023/01/28 09:00:39;;;;;;;7.93;5.75;;;;;;;1.78;60.18;94672.16;5062978;28;20043;-77
2023/01/28 09:03:05;;;;;;;9.70;6.15;;;;;;;1.77;60.50;94679.50;5062875;28;20112;-75
2023/01/28 09:05:31;;;;;;;9.55;6.05;;;;;;;1.73;60.46;94676.03;5062408;28;20029;-75
2023/01/28 09:08:01;;;;;;;8.38;6.38;;;;;;;1.72;60.83;94681.81;5063518;28;20455;-76
2023/01/28 09:10:26;;;;;;;7.40;5.97;;;;;;;1.73;60.83;94684.16;5063011;28;20548;-75
2023/01/28 09:12:52;;;;;;;10.70;6.70;;;;;;;1.81;63.20;94693.06;5062886;28;20036;-75
2023/01/28 09:15:17;;;;;;;8.10;6.43;;;;;;;1.78;61.83;94691.13;5063807;28;20107;-75
2023/01/28 09:17:43;;;;;;;11.73;6.97;;;;;;;1.73;61.43;94683.38;5062540;28;20477;-75
2023/01/28 09:20:09;;;;;;;11.02;7.07;;;;;;;1.77;61.57;94686.84;5064998;28;20036;-77
2023/01/28 09:22:35;;;;;;;9.82;6.63;;;;;;;1.67;61.47;94682.22;5063268;28;20041;-75
2023/01/28 09:25:02;;;;;;;9.75;6.35;;;;;;;1.68;61.85;94679.13;5062955;28;20032;-74
2023/01/28 09:27:28;;;;;;;12.07;7.38;;;;;;;1.69;61.73;94679.88;5062683;28;20116;-77
2023/01/28 09:29:53;;;;;;;9.20;6.85;;;;;;;1.65;62.15;94679.88;5062565;28;20116;-73
2023/01/28 09:32:19;;;;;;;9.98;6.55;;;;;;;1.68;61.34;94678.34;5062720;28;20070;-75
2023/01/28 09:34:44;;;;;;;9.65;6.25;;;;;;;1.54;61.56;94674.44;5062159;28;20091;-77
2023/01/28 09:37:10;;;;;;;9.20;6.38;;;;;;;1.64;61.74;94683.75;5062476;28;20109;-76
2023/01/28 09:39:36;;;;;;;9.00;7.15;;;;;;;1.69;61.58;94690.72;5065808;28;20721;-77
2023/01/28 09:42:35;;;;;;;10.35;7.45;;;;;;;1.69;61.63;94686.06;5066798;28;20025;-77
2023/01/28 09:45:05;;;;;;;10.60;7.22;;;;;;;1.73;61.99;94678.75;5066555;28;20510;-77
2023/01/28 09:47:38;;;;;;;10.48;6.95;;;;;;;1.78;61.91;94686.50;5065482;28;20507;-75
2023/01/28 09:50:10;;;;;;;9.52;6.85;;;;;;;1.79;61.45;94681.84;5067028;28;20126;-75
2023/01/28 09:52:38;;;;;;;10.18;6.95;;;;;;;1.80;61.78;94681.44;5065387;28;20082;-76
2023/01/28 09:55:14;;;;;;;11.02;6.95;;;;;;;1.73;61.84;94677.97;5048675;28;20036;-76
2023/01/28 09:57:45;;;;;;;12.23;7.53;;;;;;;1.72;62.24;94679.91;5064886;28;20028;-75
2023/01/28 10:00:15;;;;;;;10.65;7.97;;;;;;;1.76;61.89;94679.88;5063902;28;20522;-76
2023/01/28 10:02:41;;;;;;;10.90;7.20;;;;;;;1.72;61.92;94682.63;5029347;28;20054;-76
2023/01/28 10:05:19;;;;;;;11.27;7.70;;;;;;;1.70;62.17;94673.31;5065257;28;20021;-75
2023/01/28 10:08:18;;;;;;;13.38;8.07;;;;;;;1.78;61.96;94672.94;5066213;28;20103;-75
2023/01/28 10:10:47;;;;;;;14.20;8.73;;;;;;;1.89;61.72;94674.84;5066249;28;20029;-75
2023/01/28 10:13:23;;;;;;;13.45;8.65;;;;;;;1.83;61.50;94672.53;5064891;28;20111;-74
2023/01/28 10:16:07;;;;;;;13.10;9.07;;;;;;;1.80;61.84;94673.31;5064022;28;20024;-73
2023/01/28 10:18:57;;;;;;;11.80;9.10;;;;;;;1.80;61.78;94672.53;5065073;28;20044;-74
2023/01/28 10:21:32;;;;;;;12.70;9.10;;;;;;;1.84;61.85;94665.97;5043898;28;20028;-73
2023/01/28 10:24:00;;;;;;;13.05;9.25;;;;;;;1.83;61.93;94671.75;5064442;28;20398;-74
2023/01/28 10:26:35;;;;;;;12.75;8.77;;;;;;;1.94;61.71;94666.34;5064641;28;20027;-75
2023/01/28 10:29:12;;;;;;;9.55;7.75;;;;;;;1.87;61.54;94677.97;5064507;28;20046;-78
2023/01/28 10:31:42;;;;;;;11.88;8.18;;;;;;;1.85;61.71;94675.63;5064687;28;20467;-77
2023/01/28 10:34:09;;;;;;;11.90;8.43;;;;;;;1.84;62.24;94674.09;5063799;28;20606;-77
2023/01/28 10:36:34;;;;;;;11.57;7.90;;;;;;;1.85;62.01;94675.63;5064747;28;20028;-80
2023/01/28 10:38:59;;;;;;;12.95;8.25;;;;;;;1.85;61.48;94669.44;5063587;28;20039;-77
2023/01/28 10:41:25;;;;;;;11.13;7.65;;;;;;;1.77;61.33;94678.72;5064335;28;20418;-77
2023/01/28 10:43:51;;;;;;;11.80;8.07;;;;;;;1.74;61.61;94668.66;5064946;28;20017;-78
2023/01/28 10:46:35;;;;;;;11.68;7.22;;;;;;;1.77;62.00;94674.06;5065417;28;20032;-73
2023/01/28 10:49:12;;;;;;;;;;;;;;;1.69;61.54;94677.94;5062903;28;20029;-77
2023/01/28 10:51:40;;;;;;;9.75;6.65;;;;;;;1.75;62.03;94670.22;5062716;28;19948;-77
2023/01/28 10:54:18;;;;;;;11.65;7.50;;;;;;;1.85;62.08;94669.44;5065427;28;20104;-74
2023/01/28 10:56:43;;;;;;;8.60;6.82;;;;;;;1.88;61.24;94659.75;5062866;28;20025;-77
2023/01/28 10:59:41;;;;;;;7.68;6.25;;;;;;;1.87;61.08;94675.25;5063743;28;20058;-77
2023/01/28 11:02:27;;;;;;;9.65;6.72;;;;;;;1.91;61.50;94676.03;5045325;28;20036;-74
2023/01/28 11:05:07;;;;;;;10.27;7.28;;;;;;;1.97;61.54;94660.94;5043229;28;20396;-77
2023/01/28 11:07:32;;;;;;;10.32;7.18;;;;;;;1.91;61.67;94657.06;5058310;28;20060;-75
2023/01/28 11:09:58;;;;;;;10.00;7.32;;;;;;;1.93;61.29;94659.38;5061581;28;20071;-75
2023/01/28 11:12:29;;;;;;;10.15;8.00;;;;;;;2.00;61.19;94664.78;5047436;28;20037;-74
2023/01/28 11:15:02;;;;;;;9.48;6.40;;;;;;;1.93;61.26;94665.56;5061894;28;20025;-74
2023/01/28 11:17:33;;;;;;;9.20;7.53;;;;;;;2.00;60.85;94659.34;5058947;28;20090;-75
2023/01/28 11:20:07;;;;;;;9.43;6.85;;;;;;;1.98;61.24;94661.69;5045547;28;20102;-74
2023/01/28 11:22:36;;;;;;;10.32;7.10;;;;;;;2.02;60.36;94659.75;5044472;28;20028;-74
2023/01/28 11:25:06;;;;;;;8.50;6.75;;;;;;;1.97;60.15;94662.88;5028834;28;20040;-74
2023/01/28 11:27:32;;;;;;;9.25;6.75;;;;;;;2.02;60.15;94648.91;5044337;28;20105;-72
2023/01/28 11:30:02;;;;;;;11.38;7.72;;;;;;;2.18;60.35;94656.63;5045035;28;20406;-75
2023/01/28 11:32:28;;;;;;;12.10;7.90;;;;;;;2.22;60.06;94650.03;5044812;28;20037;-75
2023/01/28 11:34:59;;;;;;;10.95;6.50;;;;;;;2.15;59.66;94652.00;5044886;28;20132;-74
2023/01/28 11:37:26;;;;;;;11.23;7.78;;;;;;;2.12;60.09;94657.06;5051510;28;20487;-76
2023/01/28 11:40:15;;;;;;;11.73;7.82;;;;;;;2.15;59.58;94654.72;5064248;28;20035;-79
2023/01/28 11:42:41;;;;;;;9.20;7.30;;;;;;;2.18;59.56;94649.28;5062638;28;20035;-75
2023/01/28 11:45:15;;;;;;;8.70;6.70;;;;;;;2.21;59.34;94650.44;5045850;28;20029;-76
2023/01/28 11:47:52;;;;;;;8.13;6.43;;;;;;;2.33;59.00;94648.09;5062609;28;20035;-75
2023/01/28 11:50:32;;;;;;;9.50;6.82;;;;;;;2.54;58.63;94643.78;5046057;28;20117;-76
2023/01/28 11:53:26;;;;;;;9.65;6.55;;;;;;;2.51;58.50;94655.41;5043386;28;20031;-77
2023/01/28 11:56:27;;;;;;;10.27;6.95;;;;;;;2.67;58.49;94647.63;5045434;28;20071;-78
2023/01/28 11:59:18;;;;;;;9.30;6.57;;;;;;;2.86;57.84;94652.59;5045821;28;20025;-78
2023/01/28 12:01:53;;;;;;;9.25;7.03;;;;;;;3.04;57.28;94659.88;5044040;28;20124;-83
2023/01/28 12:04:41;;;;;;;9.55;6.80;;;;;;;2.90;57.17;94653.34;5048231;28;20087;-82
2023/01/28 12:07:40;;;;;;;8.38;6.90;;;;;;;2.88;57.46;94642.13;5050050;28;20530;-81
2023/01/28 12:10:19;;;;;;;12.27;6.72;;;;;;;2.82;57.44;94657.28;5044680;28;20029;-83
2023/01/28 12:13:05;;;;;;;10.25;6.47;;;;;;;2.83;56.74;94650.66;5028111;28;20040;-81
2023/01/28 12:16:11;;;;;;;10.43;7.05;;;;;;;2.87;57.05;94650.66;5045295;28;20036;-82
2023/01/28 12:19:02;;;;;;;12.00;8.00;;;;;;;2.95;57.06;94645.97;5044210;28;20044;-76
2023/01/28 12:21:42;;;;;;;10.38;7.82;;;;;;;2.86;56.94;94644.44;5045456;28;20056;-83
2023/01/28 12:24:30;;;;;;;10.20;6.75;;;;;;;2.81;56.90;94654.94;5044419;28;20033;-78
2023/01/28 12:27:24;;;;;;;12.88;8.60;;;;;;;2.82;58.12;94653.78;5041518;28;20573;-77
2023/01/28 12:30:00;;;;;;;13.18;8.23;;;;;;;2.78;59.23;94667.34;5046003;28;20057;-76